createdAt,value
2022-12-09T00:01:30.852Z,96887.22
2022-12-09T00:03:58.454Z,96885.25
2022-12-09T00:06:28.612Z,96885.41
2022-12-09T00:08:57.362Z,96887.06
2022-12-09T00:11:26.193Z,96878.63
2022-12-09T00:13:56.891Z,96876.00
2022-12-09T00:16:25.746Z,96876.66
2022-12-09T00:18:53.611Z,96883.44
2022-12-09T00:21:22.145Z,96875.50
2022-12-09T00:23:50.716Z,96879.81
2022-12-09T00:26:19.215Z,96881.97
2022-12-09T00:28:47.493Z,96892.34
2022-12-09T00:31:18.057Z,96885.25
2022-12-09T00:33:45.939Z,96884.41
2022-12-09T00:36:15.515Z,96881.13
2022-12-09T00:38:43.395Z,96871.38
2022-12-09T00:41:13.290Z,96866.25
2022-12-09T00:43:41.278Z,96868.06
2022-12-09T00:46:08.849Z,96863.94
2022-12-09T00:48:40.697Z,96863.09
2022-12-09T00:51:09.746Z,96860.63
2022-12-09T00:53:37.214Z,96861.28
2022-12-09T00:56:04.816Z,96870.06
2022-12-09T00:58:32.271Z,96869.22
2022-12-09T01:01:02.665Z,96870.06
2022-12-09T01:03:30.545Z,96875.16
2022-12-09T01:06:00.137Z,96863.44
2022-12-09T01:08:27.521Z,96868.22
2022-12-09T01:10:55.530Z,96868.19
2022-12-09T01:13:23.001Z,96871.66
2022-12-09T01:15:50.580Z,96871.38
2022-12-09T01:18:18.107Z,96878.63
2022-12-09T01:20:45.626Z,96865.41
2022-12-09T01:23:14.470Z,96866.56
2022-12-09T01:25:41.964Z,96865.59
2022-12-09T01:28:09.457Z,96871.16
2022-12-09T01:30:37.123Z,96865.72
2022-12-09T01:33:04.820Z,96866.56
2022-12-09T01:35:32.323Z,96865.38
2022-12-09T01:37:59.853Z,96863.72
2022-12-09T01:40:28.656Z,96859.94
2022-12-09T01:42:56.098Z,96862.94
2022-12-09T01:45:40.782Z,96851.50
2022-12-09T01:48:14.048Z,96856.47
2022-12-09T01:50:46.243Z,96856.47
2022-12-09T01:53:15.257Z,96857.28
2022-12-09T01:55:45.121Z,96839.44
2022-12-09T01:58:13.596Z,96836.31
2022-12-09T02:00:41.834Z,96831.00
2022-12-09T02:03:09.589Z,96834.13
2022-12-09T02:05:37.998Z,96830.19
2022-12-09T02:08:11.264Z,96829.69
2022-12-09T02:10:45.169Z,96814.19
2022-12-09T02:13:23.672Z,96813.19
2022-12-09T02:15:54.458Z,96807.56
2022-12-09T02:18:27.881Z,96803.75
2022-12-09T02:20:59.904Z,96802.44
2022-12-09T02:23:32.969Z,96808.53
2022-12-09T02:26:09.069Z,96802.59
2022-12-09T02:29:03.166Z,96806.56
2022-12-09T02:31:51.755Z,96809.84
2022-12-09T02:34:21.758Z,96800.94
2022-12-09T02:36:58.507Z,96807.03
2022-12-09T02:39:34.176Z,96804.72
2022-12-09T02:42:06.755Z,96810.00
2022-12-09T02:44:35.207Z,96811.81
2022-12-09T02:47:05.700Z,96803.06
2022-12-09T02:49:36.300Z,96805.22
2022-12-09T02:52:05.068Z,96805.06
2022-12-09T02:54:35.166Z,96792.50
2022-12-09T02:57:11.694Z,96789.69
2022-12-09T02:59:39.467Z,96801.75
2022-12-09T03:02:18.906Z,96800.41
2022-12-09T03:04:55.659Z,96792.31
2022-12-09T03:07:29.695Z,96791.63
2022-12-09T03:10:06.313Z,96782.41
2022-12-09T03:12:36.170Z,96792.13
2022-12-09T03:15:06.840Z,96784.41
2022-12-09T03:17:37.068Z,96779.13
2022-12-09T03:20:12.748Z,96783.38
2022-12-09T03:22:44.946Z,96782.25
2022-12-09T03:25:18.503Z,96774.13
2022-12-09T03:27:52.312Z,96779.25
2022-12-09T03:30:20.581Z,96775.28
2022-12-09T03:32:48.917Z,96771.00
2022-12-09T03:35:23.202Z,96764.72
2022-12-09T03:37:52.608Z,96767.22
2022-12-09T03:40:26.951Z,96771.19
2022-12-09T03:42:59.574Z,96767.22
2022-12-09T03:45:28.356Z,96764.06
2022-12-09T03:47:56.431Z,96762.56
2022-12-09T03:50:29.970Z,96770.16
2022-12-09T03:53:02.184Z,96762.75
2022-12-09T03:55:35.692Z,96766.53
2022-12-09T03:58:07.193Z,96765.06
2022-12-09T04:00:38.111Z,96774.28
2022-12-09T04:03:06.425Z,96776.75
2022-12-09T04:05:35.724Z,96768.53
2022-12-09T04:08:03.386Z,96766.38
2022-12-09T04:10:31.178Z,96765.41
2022-12-09T04:12:58.931Z,96764.38
2022-12-09T04:15:26.370Z,96757.81
2022-12-09T04:17:54.096Z,96758.00
2022-12-09T04:20:21.560Z,96760.91
2022-12-09T04:22:50.426Z,96757.31
2022-12-09T04:25:18.193Z,96755.16
2022-12-09T04:27:48.008Z,96751.06
2022-12-09T04:30:15.759Z,96749.06
2022-12-09T04:32:44.041Z,96743.94
2022-12-09T04:35:11.936Z,96750.22
2022-12-09T04:37:42.001Z,96755.00
2022-12-09T04:40:16.684Z,96755.34
2022-12-09T04:42:48.087Z,96757.25
2022-12-09T04:45:16.023Z,96757.56
2022-12-09T04:47:43.474Z,96749.84
2022-12-09T04:50:13.331Z,96743.78
2022-12-09T04:52:41.663Z,96754.50
2022-12-09T04:55:13.546Z,96746.31
2022-12-09T04:57:41.011Z,96741.09
2022-12-09T05:00:10.475Z,96738.69
2022-12-09T05:02:38.178Z,96740.34
2022-12-09T05:05:06.871Z,96743.13
2022-12-09T05:07:34.680Z,96738.50
2022-12-09T05:10:02.989Z,96732.25
2022-12-09T05:12:33.960Z,96729.28
2022-12-09T05:15:01.559Z,96724.00
2022-12-09T05:17:29.157Z,96726.31
2022-12-09T05:19:56.900Z,96734.50
2022-12-09T05:22:24.597Z,96723.97
2022-12-09T05:24:52.156Z,96719.06
2022-12-09T05:27:19.821Z,96716.59
2022-12-09T05:29:49.389Z,96713.44
2022-12-09T05:32:16.930Z,96703.72
2022-12-09T05:34:44.957Z,96702.72
2022-12-09T05:37:15.332Z,96701.56
2022-12-09T05:39:43.081Z,96706.03
2022-12-09T05:42:10.672Z,96700.44
2022-12-09T05:44:41.114Z,96699.59
2022-12-09T05:47:10.004Z,96699.59
2022-12-09T05:49:39.039Z,96692.50
2022-12-09T05:52:07.377Z,96690.81
2022-12-09T05:54:34.829Z,96682.91
2022-12-09T05:57:04.383Z,96677.66
2022-12-09T05:59:32.296Z,96677.66
2022-12-09T06:02:02.483Z,96674.84
2022-12-09T06:04:36.345Z,96678.63
2022-12-09T06:07:04.702Z,96673.69
2022-12-09T06:09:33.074Z,96675.84
2022-12-09T06:12:00.735Z,96677.66
2022-12-09T06:14:28.576Z,96670.56
2022-12-09T06:16:56.521Z,96675.84
2022-12-09T06:19:24.144Z,96667.78
2022-12-09T06:21:53.296Z,96668.41
2022-12-09T06:24:21.153Z,96665.44
2022-12-09T06:26:49.397Z,96657.84
2022-12-09T06:29:16.919Z,96663.63
2022-12-09T06:31:44.468Z,96657.72
2022-12-09T06:34:12.511Z,96652.72
2022-12-09T06:36:40.505Z,96654.06
2022-12-09T06:39:11.040Z,96653.06
2022-12-09T06:41:41.337Z,96651.41
2022-12-09T06:44:09.258Z,96652.72
2022-12-09T06:46:36.962Z,96652.59
2022-12-09T06:49:04.796Z,96656.69
2022-12-09T06:51:33.243Z,96647.44
2022-12-09T06:54:00.987Z,96660.66
2022-12-09T06:56:32.603Z,96663.47
2022-12-09T06:59:00.567Z,96657.22
2022-12-09T07:01:28.564Z,96655.22
2022-12-09T07:03:57.750Z,96658.53
2022-12-09T07:06:30.158Z,96650.91
2022-12-09T07:09:00.385Z,96648.97
2022-12-09T07:11:30.235Z,96655.06
2022-12-09T07:13:58.247Z,96659.34
2022-12-09T07:16:26.041Z,96660.66
2022-12-09T07:18:54.677Z,96667.09
2022-12-09T07:21:24.161Z,96657.09
2022-12-09T07:23:52.544Z,96669.72
2022-12-09T07:26:20.717Z,96667.59
2022-12-09T07:28:51.259Z,96659.53
2022-12-09T07:31:21.200Z,96664.13
2022-12-09T07:33:51.700Z,96671.06
2022-12-09T07:36:21.437Z,96669.22
2022-12-09T07:38:50.355Z,96664.31
2022-12-09T07:41:19.289Z,96665.94
2022-12-09T07:43:49.663Z,96667.25
2022-12-09T07:46:19.489Z,96666.75
2022-12-09T07:48:48.277Z,96673.25
2022-12-09T07:51:16.995Z,96664.78
2022-12-09T07:53:44.696Z,96671.78
2022-12-09T07:56:14.838Z,96658.34
2022-12-09T07:58:43.306Z,96656.06
2022-12-09T08:01:14.251Z,96658.00
2022-12-09T08:03:42.554Z,96656.53
2022-12-09T08:06:13.768Z,96653.75
2022-12-09T08:08:41.941Z,96657.03
2022-12-09T08:11:11.341Z,96655.22
2022-12-09T08:13:39.208Z,96656.47
2022-12-09T08:16:08.774Z,96652.66
2022-12-09T08:18:38.557Z,96652.09
2022-12-09T08:21:08.271Z,96655.34
2022-12-09T08:23:36.842Z,96651.88
2022-12-09T08:26:06.812Z,96653.69
2022-12-09T08:28:34.901Z,96648.78
2022-12-09T08:31:07.485Z,96639.72
2022-12-09T08:33:35.487Z,96628.34
2022-12-09T08:36:05.872Z,96626.84
2022-12-09T08:38:33.440Z,96634.22
2022-12-09T08:41:09.311Z,96629.25
2022-12-09T08:43:36.973Z,96627.81
2022-12-09T08:46:04.788Z,96617.03
2022-12-09T08:48:32.834Z,96626.25
2022-12-09T08:51:00.596Z,96610.31
2022-12-09T08:53:29.682Z,96616.59
2022-12-09T08:55:57.128Z,96619.63
2022-12-09T08:58:25.100Z,96613.31
2022-12-09T09:00:53.384Z,96610.00
2022-12-09T09:03:21.668Z,96613.88
2022-12-09T09:05:49.660Z,96616.84
2022-12-09T09:08:17.629Z,96611.84
2022-12-09T09:10:46.810Z,96611.47
2022-12-09T09:13:14.361Z,96615.59
2022-12-09T09:15:42.182Z,96612.16
2022-12-09T09:18:09.946Z,96612.47
2022-12-09T09:20:37.766Z,96614.50
2022-12-09T09:23:05.330Z,96619.41
2022-12-09T09:25:33.382Z,96611.22
2022-12-09T09:28:02.369Z,96618.75
2022-12-09T09:30:29.915Z,96614.47
2022-12-09T09:32:57.659Z,96615.16
2022-12-09T09:35:25.307Z,96604.59
2022-12-09T09:37:54.882Z,96600.78
2022-12-09T09:40:23.375Z,96597.31
2022-12-09T09:42:54.207Z,96591.81
2022-12-09T09:45:25.556Z,96593.16
2022-12-09T09:47:56.762Z,96589.53
2022-12-09T09:50:31.975Z,96584.94
2022-12-09T09:53:03.183Z,96587.59
2022-12-09T09:55:38.854Z,96583.44
2022-12-09T09:58:14.390Z,96583.31
2022-12-09T10:00:50.809Z,96594.69
2022-12-09T10:03:30.409Z,96591.25
2022-12-09T10:06:03.764Z,96579.19
2022-12-09T10:08:39.686Z,96577.38
2022-12-09T10:11:15.958Z,96580.69
2022-12-09T10:13:54.237Z,96587.28
2022-12-09T10:16:28.857Z,96567.16
2022-12-09T10:19:08.152Z,96571.56
2022-12-09T10:21:42.430Z,96570.41
2022-12-09T10:24:20.032Z,96571.44
2022-12-09T10:26:56.490Z,96565.63
2022-12-09T10:29:34.981Z,96565.84
2022-12-09T10:32:04.329Z,96569.31
2022-12-09T10:34:32.036Z,96565.31
2022-12-09T10:36:59.795Z,96560.88
2022-12-09T10:39:27.354Z,96559.03
2022-12-09T10:42:16.107Z,96553.97
2022-12-09T10:44:43.870Z,96549.75
2022-12-09T10:47:26.067Z,96549.72
2022-12-09T10:49:55.501Z,96548.34
2022-12-09T10:52:23.651Z,96544.66
2022-12-09T10:54:51.638Z,96538.75
2022-12-09T10:57:25.328Z,96535.38
2022-12-09T11:00:07.088Z,96535.09
2022-12-09T11:02:36.879Z,96528.31
2022-12-09T11:05:24.312Z,96527.81
2022-12-09T11:07:54.132Z,96526.09
2022-12-09T11:10:25.164Z,96518.91
2022-12-09T11:12:55.407Z,96517.53
2022-12-09T11:15:28.687Z,96515.41
2022-12-09T11:18:00.542Z,96512.50
2022-12-09T11:20:30.665Z,96499.88
2022-12-09T11:23:05.438Z,96500.31
2022-12-09T11:25:36.115Z,96485.31
2022-12-09T11:28:06.080Z,96491.84
2022-12-09T11:30:40.646Z,96498.91
2022-12-09T11:33:26.343Z,96497.28
2022-12-09T11:35:58.302Z,96492.53
2022-12-09T11:38:35.788Z,96479.78
2022-12-09T11:41:07.691Z,96492.50
2022-12-09T11:43:42.436Z,96482.56
2022-12-09T11:46:21.367Z,96488.72
2022-12-09T11:48:57.405Z,96485.97
2022-12-09T11:51:29.270Z,96483.50
2022-12-09T11:54:03.652Z,96484.50
2022-12-09T11:56:31.832Z,96489.44
2022-12-09T11:59:03.041Z,96487.59
2022-12-09T12:01:42.521Z,96483.00
2022-12-09T12:04:15.375Z,96471.94
2022-12-09T12:06:47.890Z,96468.16
2022-12-09T12:09:20.266Z,96473.28
2022-12-09T12:12:00.295Z,96456.22
2022-12-09T12:14:30.217Z,96448.09
2022-12-09T12:17:03.406Z,96450.84
2022-12-09T12:19:35.168Z,96465.16
2022-12-09T12:22:29.788Z,96459.53
2022-12-09T12:25:23.074Z,96463.22
2022-12-09T12:28:08.792Z,96461.22
2022-12-09T12:30:45.638Z,96450.75
2022-12-09T12:36:28.063Z,96441.88
2022-12-09T12:39:07.136Z,96438.03
2022-12-09T12:41:42.756Z,96435.03
2022-12-09T12:44:56.954Z,96439.03
2022-12-09T12:47:30.931Z,96433.84
2022-12-09T12:50:12.593Z,96435.03
2022-12-09T12:52:57.188Z,96435.38
2022-12-09T12:55:40.603Z,96434.97
2022-12-09T12:58:15.935Z,96434.63
2022-12-09T13:00:49.434Z,96424.41
2022-12-09T13:03:25.273Z,96412.53
2022-12-09T13:05:57.449Z,96415.22
2022-12-09T13:08:31.301Z,96407.13
2022-12-09T13:11:05.868Z,96401.00
2022-12-09T13:13:37.368Z,96413.06
2022-12-09T13:16:13.312Z,96411.00
2022-12-09T13:18:41.410Z,96396.84
2022-12-09T13:21:10.652Z,96392.72
2022-12-09T13:23:51.797Z,96402.97
2022-12-09T13:26:30.221Z,96392.38
2022-12-09T13:29:05.883Z,96388.03
2022-12-09T13:31:36.476Z,96391.56
2022-12-09T13:34:24.596Z,96390.34
2022-12-09T13:36:52.106Z,96391.84
2022-12-09T13:39:53.065Z,96389.94
2022-12-09T13:42:56.276Z,96399.56
2022-12-09T13:45:32.411Z,96408.13
2022-12-09T13:48:04.128Z,96409.53
2022-12-09T13:50:37.373Z,96406.53
2022-12-09T13:53:07.758Z,96407.00
2022-12-09T13:55:50.052Z,96405.84
2022-12-09T13:58:54.905Z,96424.94
2022-12-09T14:01:30.830Z,96431.41
2022-12-09T14:04:11.947Z,96430.06
2022-12-09T14:06:51.927Z,96434.50
2022-12-09T14:09:29.291Z,96433.28
2022-12-09T14:11:57.409Z,96432.84
2022-12-09T14:14:58.664Z,96433.63
2022-12-09T14:18:02.593Z,96423.53
2022-12-09T14:20:32.938Z,96426.16
2022-12-09T14:23:12.791Z,96425.41
2022-12-09T14:26:02.700Z,96424.63
2022-12-09T14:28:55.440Z,96433.38
2022-12-09T14:32:02.661Z,96434.25
2022-12-09T14:34:40.572Z,96440.06
2022-12-09T14:37:37.101Z,96447.06
2022-12-09T14:40:20.932Z,96446.84
2022-12-09T14:42:56.372Z,96456.25
2022-12-09T14:45:33.889Z,96463.81
2022-12-09T14:48:03.008Z,96463.41
2022-12-09T14:50:31.710Z,96451.50
2022-12-09T14:53:02.623Z,96460.59
2022-12-09T14:55:32.687Z,96456.03
2022-12-09T14:58:01.703Z,96458.84
2022-12-09T15:00:33.056Z,96466.94
2022-12-09T15:03:31.353Z,96464.44
2022-12-09T15:05:58.098Z,96453.59
2022-12-09T15:08:33.883Z,96451.81
2022-12-09T15:11:05.913Z,96454.31
2022-12-09T15:13:34.467Z,96449.06
2022-12-09T15:16:02.537Z,96452.94
2022-12-09T15:18:30.823Z,96457.75
2022-12-09T15:21:02.257Z,96451.72
2022-12-09T15:23:32.658Z,96455.81
2022-12-09T15:26:01.947Z,96455.56
2022-12-09T15:28:32.364Z,96462.81
2022-12-09T15:31:02.387Z,96459.53
2022-12-09T15:33:32.543Z,96448.88
2022-12-09T15:36:05.525Z,96448.41
2022-12-09T15:38:40.966Z,96445.91
2022-12-09T15:41:27.560Z,96441.09
2022-12-09T15:44:00.226Z,96445.88
2022-12-09T15:46:28.622Z,96448.72
2022-12-09T15:48:58.650Z,96465.97
2022-12-09T15:51:28.535Z,96454.72
2022-12-09T15:53:58.760Z,96457.03
2022-12-09T15:56:31.402Z,96462.75
2022-12-09T15:59:05.186Z,96465.72
2022-12-09T16:01:37.744Z,96466.41
2022-12-09T16:04:07.108Z,96467.03
2022-12-09T16:06:37.991Z,96465.09
2022-12-09T16:09:13.299Z,96465.63
2022-12-09T16:11:41.466Z,96473.81
2022-12-09T16:14:10.466Z,96468.97
2022-12-09T16:16:43.692Z,96470.59
2022-12-09T16:19:32.100Z,96472.97
2022-12-09T16:22:04.322Z,96464.91
2022-12-09T16:24:57.864Z,96462.41
2022-12-09T16:27:25.597Z,96462.66
2022-12-09T16:29:55.035Z,96461.03
2022-12-09T16:32:30.173Z,96466.69
2022-12-09T16:35:00.734Z,96459.84
2022-12-09T16:37:36.508Z,96450.72
2022-12-09T16:40:38.796Z,96472.69
2022-12-09T16:43:22.330Z,96467.22
2022-12-09T16:45:51.029Z,96472.59
2022-12-09T16:48:19.750Z,96468.66
2022-12-09T16:50:50.233Z,96474.69
2022-12-09T16:53:21.171Z,96481.56
2022-12-09T16:55:53.639Z,96485.03
2022-12-09T16:58:21.444Z,96490.28
2022-12-09T17:00:49.969Z,96490.44
2022-12-09T17:03:23.560Z,96484.06
2022-12-09T17:05:51.003Z,96490.50
2022-12-09T17:08:19.915Z,96494.28
2022-12-09T17:10:47.476Z,96490.66
2022-12-09T17:13:14.975Z,96491.94
2022-12-09T17:15:42.849Z,96491.56
2022-12-09T17:18:11.372Z,96505.78
2022-12-09T17:20:39.164Z,96501.06
2022-12-09T17:23:06.657Z,96509.78
2022-12-09T17:25:35.467Z,96510.78
2022-12-09T17:28:04.099Z,96499.22
2022-12-09T17:30:31.622Z,96506.19
2022-12-09T17:32:59.860Z,96506.16
2022-12-09T17:35:27.334Z,96514.38
2022-12-09T17:37:54.805Z,96514.88
2022-12-09T17:40:22.258Z,96517.94
2022-12-09T17:42:51.082Z,96518.72
2022-12-09T17:45:18.643Z,96521.50
2022-12-09T17:47:46.123Z,96512.84
2022-12-09T17:50:13.547Z,96524.00
2022-12-09T17:52:42.104Z,96522.06
2022-12-09T17:55:09.853Z,96522.94
2022-12-09T17:57:37.382Z,96524.59
2022-12-09T18:00:07.938Z,96527.09
2022-12-09T18:02:35.870Z,96529.22
2022-12-09T18:05:03.403Z,96526.44
2022-12-09T18:07:30.871Z,96535.84
2022-12-09T18:09:58.312Z,96538.72
2022-12-09T18:12:25.810Z,96540.94
2022-12-09T18:14:53.263Z,96544.53
2022-12-09T18:17:22.068Z,96539.78
2022-12-09T18:19:49.551Z,96542.03
2022-12-09T18:22:17.063Z,96537.31
2022-12-09T18:24:44.511Z,96541.59
2022-12-09T18:27:11.990Z,96540.72
2022-12-09T18:29:41.700Z,96537.78
2022-12-09T18:32:09.584Z,96543.91
2022-12-09T18:34:38.531Z,96541.75
2022-12-09T18:37:05.979Z,96552.97
2022-12-09T18:39:33.464Z,96557.56
2022-12-09T18:42:00.951Z,96553.59
2022-12-09T18:44:28.451Z,96546.16
2022-12-09T18:46:55.932Z,96540.75
2022-12-09T18:49:26.953Z,96541.06
2022-12-09T18:51:56.120Z,96543.53
2022-12-09T18:54:24.597Z,96551.81
2022-12-09T18:56:52.400Z,96543.91
2022-12-09T18:59:22.759Z,96550.50
2022-12-09T19:01:50.737Z,96544.25
2022-12-09T19:04:21.173Z,96556.16
2022-12-09T19:06:50.620Z,96559.78
2022-12-09T19:09:21.517Z,96552.50
2022-12-09T19:11:50.663Z,96558.22
2022-12-09T19:14:18.573Z,96556.13
2022-12-09T19:16:46.707Z,96557.78
2022-12-09T19:19:16.081Z,96562.34
2022-12-09T19:21:44.420Z,96568.13
2022-12-09T19:24:15.337Z,96566.66
2022-12-09T19:26:44.218Z,96573.41
2022-12-09T19:29:12.732Z,96565.63
2022-12-09T19:31:42.238Z,96570.59
2022-12-09T19:34:13.308Z,96576.38
2022-12-09T19:36:41.010Z,96575.03
2022-12-09T19:39:09.838Z,96579.66
2022-12-09T19:41:38.203Z,96575.88
2022-12-09T19:44:07.672Z,96572.22
2022-12-09T19:46:36.591Z,96580.66
2022-12-09T19:49:04.090Z,96582.31
2022-12-09T19:51:32.110Z,96575.22
2022-12-09T19:54:00.997Z,96580.84
2022-12-09T19:56:29.372Z,96586.59
2022-12-09T19:58:57.255Z,96585.63
2022-12-09T20:01:28.447Z,96591.06
2022-12-09T20:04:05.285Z,96590.72
2022-12-09T20:06:41.765Z,96583.63
2022-12-09T20:09:12.940Z,96591.88
2022-12-09T20:11:42.599Z,96591.53
2022-12-09T20:14:13.538Z,96595.19
2022-12-09T20:16:44.907Z,96582.31
2022-12-09T20:19:12.354Z,96579.66
2022-12-09T20:21:40.478Z,96577.38
2022-12-09T20:24:10.625Z,96582.50
2022-12-09T20:26:39.158Z,96588.06
2022-12-09T20:29:08.611Z,96584.94
2022-12-09T20:31:38.197Z,96584.66
2022-12-09T20:34:11.348Z,96597.50
2022-12-09T20:36:41.604Z,96597.34
2022-12-09T20:39:12.988Z,96591.06
2022-12-09T20:41:41.648Z,96602.63
2022-12-09T20:44:10.317Z,96602.78
2022-12-09T20:46:39.169Z,96601.94
2022-12-09T20:49:08.176Z,96603.13
2022-12-09T20:51:37.906Z,96596.50
2022-12-09T20:54:06.204Z,96597.97
2022-12-09T20:56:35.351Z,96601.44
2022-12-09T20:59:02.852Z,96599.78
2022-12-09T21:01:32.448Z,96604.09
2022-12-09T21:04:02.304Z,96606.03
2022-12-09T21:06:34.128Z,96615.13
2022-12-09T21:09:02.806Z,96611.66
2022-12-09T21:11:30.320Z,96621.72
2022-12-09T21:13:59.893Z,96620.41
2022-12-09T21:16:30.237Z,96619.41
2022-12-09T21:18:59.563Z,96628.66
2022-12-09T21:21:29.830Z,96630.31
2022-12-09T21:24:02.575Z,96623.53
2022-12-09T21:26:30.252Z,96636.38
2022-12-09T21:29:00.040Z,96624.19
2022-12-09T21:31:30.425Z,96623.84
2022-12-09T21:34:01.482Z,96628.47
2022-12-09T21:36:31.143Z,96626.34
2022-12-09T21:38:59.964Z,96621.38
2022-12-09T21:41:29.651Z,96627.47
2022-12-09T21:43:57.845Z,96630.59
2022-12-09T21:46:29.140Z,96631.91
2022-12-09T21:49:03.339Z,96630.59
2022-12-09T21:51:32.188Z,96625.31
2022-12-09T21:54:01.633Z,96635.88
2022-12-09T21:56:31.193Z,96626.47
2022-12-09T21:58:59.956Z,96637.81
2022-12-09T22:01:29.859Z,96626.72
2022-12-09T22:03:58.668Z,96611.22
2022-12-09T22:06:26.398Z,96606.91
2022-12-09T22:08:53.880Z,96619.41
2022-12-09T22:11:24.722Z,96617.56
2022-12-09T22:13:52.400Z,96620.38
2022-12-09T22:16:21.612Z,96633.56
2022-12-09T22:18:50.472Z,96634.38
2022-12-09T22:21:25.319Z,96639.66
2022-12-09T22:23:54.102Z,96641.63
2022-12-09T22:26:23.947Z,96642.78
2022-12-09T22:28:52.225Z,96645.44
2022-12-09T22:31:22.141Z,96645.78
2022-12-09T22:33:51.666Z,96648.75
2022-12-09T22:36:19.755Z,96656.66
2022-12-09T22:38:48.674Z,96649.03
2022-12-09T22:41:18.006Z,96656.66
2022-12-09T22:43:48.099Z,96655.66
2022-12-09T22:46:17.416Z,96653.00
2022-12-09T22:48:45.640Z,96657.16
2022-12-09T22:51:16.206Z,96657.31
2022-12-09T22:53:44.495Z,96658.13
2022-12-09T22:56:12.938Z,96657.31
2022-12-09T22:58:40.687Z,96656.34
2022-12-09T23:01:12.264Z,96656.16
2022-12-09T23:03:41.310Z,96651.69
2022-12-09T23:06:09.836Z,96652.88
2022-12-09T23:08:38.225Z,96647.09
2022-12-09T23:11:08.012Z,96651.53
2022-12-09T23:13:40.669Z,96648.91
2022-12-09T23:16:12.446Z,96644.94
2022-12-09T23:18:41.073Z,96648.41
2022-12-09T23:21:10.964Z,96656.47
2022-12-09T23:23:38.796Z,96665.38
2022-12-09T23:26:07.837Z,96658.25
2022-12-09T23:28:37.122Z,96657.75
2022-12-09T23:31:05.883Z,96651.16
2022-12-09T23:33:36.394Z,96657.91
2022-12-09T23:36:06.658Z,96662.53
2022-12-09T23:38:34.172Z,96664.34
2022-12-09T23:41:01.663Z,96665.66
2022-12-09T23:43:31.450Z,96664.69
2022-12-09T23:46:01.086Z,96660.56
2022-12-09T23:48:28.580Z,96665.84
2022-12-09T23:50:57.623Z,96672.59
2022-12-09T23:53:25.303Z,96667.44
2022-12-09T23:55:52.755Z,96668.44
2022-12-09T23:58:20.245Z,96671.06
